Time;durP1;ratioP1;P1;durP2;ratioP2;P2;SDS_P1;SDS_P2;PMS_P1;PMS_P2;Temp;Humidity;BMP_temperature;BMP_pressure;BME280_temperature;BME280_humidity;BME280_pressure;Samples;Min_cycle;Max_cycle;Signal;HPM_P1;HPM_P2
2022/12/21 00:02:06;;;;;;;2.20;1.70;;;11.90;99.90;;;11.94;72.23;100656.03;4865948;28;98810;-53
2022/12/21 00:04:32;;;;;;;1.57;1.23;;;11.90;99.90;;;11.91;72.67;100663.16;4880924;28;98612;-48
2022/12/21 00:06:58;;;;;;;1.83;1.20;;;11.90;99.90;;;11.88;72.37;100667.72;4863193;28;97527;-47
2022/12/21 00:09:23;;;;;;;1.67;1.20;;;11.80;99.90;;;11.86;72.71;100666.91;4879839;28;104472;-49
2022/12/21 00:11:49;;;;;;;1.67;1.43;;;11.80;99.90;;;11.85;72.80;100662.53;4880743;28;105416;-50
2022/12/21 00:14:15;;;;;;;1.73;1.40;;;11.80;99.90;;;11.83;72.45;100667.03;4875386;28;98576;-48
2022/12/21 00:16:42;;;;;;;2.40;1.40;;;11.80;99.90;;;11.83;72.99;100672.31;4878659;28;97846;-46
2022/12/21 00:19:14;;;;;;;1.83;1.53;;;11.80;99.90;;;11.83;73.30;100664.38;4860547;28;97645;-50
2022/12/21 00:21:40;;;;;;;2.43;1.23;;;11.80;99.90;;;11.82;73.14;100660.03;4874504;28;97513;-46
2022/12/21 00:24:06;;;;;;;2.43;1.10;;;11.80;99.90;;;11.81;72.57;100660.94;4903260;28;97300;-49
2022/12/21 00:26:35;;;;;;;2.77;1.60;;;11.80;99.90;;;11.80;72.86;100669.81;4915002;28;97390;-48
2022/12/21 00:29:02;;;;;;;1.13;1.07;;;11.80;99.90;;;11.78;72.85;100667.19;4906931;28;97616;-49
2022/12/21 00:31:31;;;;;;;1.50;1.40;;;11.70;99.90;;;11.77;72.67;100657.53;4909985;28;97241;-50
2022/12/21 00:33:58;;;;;;;1.60;1.03;;;11.70;99.90;;;11.77;72.82;100654.03;4914018;28;97180;-46
2022/12/21 00:36:26;;;;;;;1.87;1.10;;;11.70;99.90;;;11.76;72.98;100647.03;4910567;28;97515;-47
2022/12/21 00:38:53;;;;;;;5.63;1.57;;;11.70;99.90;;;11.77;73.38;100659.31;4908017;28;97697;-59
2022/12/21 00:41:22;;;;;;;2.07;1.33;;;11.70;99.90;;;11.78;73.17;100655.75;4913656;28;97223;-51
2022/12/21 00:43:51;;;;;;;1.47;1.20;;;11.70;99.90;;;11.77;73.06;100649.63;4910631;28;97501;-52
2022/12/21 00:46:20;;;;;;;5.13;1.43;;;11.70;99.90;;;11.77;72.98;100648.75;4877001;28;96918;-49
2022/12/21 00:48:47;;;;;;;1.70;1.17;;;11.70;99.90;;;11.76;72.60;100652.31;4908488;28;97565;-47
2022/12/21 00:51:19;;;;;;;2.53;1.43;;;11.70;99.90;;;11.77;72.85;100654.03;4906566;28;97226;-49
2022/12/21 00:53:46;;;;;;;2.10;1.40;;;11.70;99.90;;;11.76;73.05;100652.31;4916434;28;97109;-49
2022/12/21 00:56:12;;;;;;;1.70;1.60;;;11.70;99.90;;;11.75;73.34;100640.03;4894858;28;97313;-48
2022/12/21 00:58:39;;;;;;;2.50;1.27;;;11.70;99.90;;;11.76;72.98;100647.03;4907376;28;98632;-48
2022/12/21 01:01:12;;;;;;;3.90;1.27;;;11.70;99.90;;;11.79;73.91;100639.00;4896446;28;97551;-49
2022/12/21 01:03:39;;;;;;;3.40;1.80;;;11.80;99.90;;;11.77;72.93;100654.03;4907396;28;97174;-53
2022/12/21 01:06:05;;;;;;;3.77;1.13;;;11.80;99.90;;;11.76;72.95;100647.03;4903029;28;97028;-53
2022/12/21 01:08:31;;;;;;;2.20;1.13;;;11.70;99.90;;;11.75;73.62;100650.59;4910047;28;97238;-49
2022/12/21 01:11:02;;;;;;;1.33;1.17;;;11.70;99.90;;;11.75;73.64;100661.19;4910367;28;97281;-49
2022/12/21 01:13:30;;;;;;;3.07;1.80;;;11.70;99.90;;;11.73;73.64;100660.38;4914067;28;98174;-47
2022/12/21 01:15:56;;;;;;;3.43;1.93;;;11.70;99.90;;;11.74;73.98;100659.47;4887859;28;97819;-48
2022/12/21 01:18:23;;;;;;;3.13;1.83;;;11.70;99.90;;;11.74;74.02;100664.75;4909783;28;98159;-49
2022/12/21 01:20:56;;;;;;;2.20;1.60;;;11.70;99.90;;;11.79;75.22;100668.94;4908490;28;97936;-52
2022/12/21 01:23:23;;;;;;;4.37;2.03;;;11.80;99.90;;;11.82;74.64;100663.53;4909857;28;99087;-49
2022/12/21 01:25:50;;;;;;;1.93;1.60;;;11.80;99.90;;;11.84;73.83;100668.75;4915478;28;97344;-50
2022/12/21 01:28:17;;;;;;;3.17;1.43;;;11.80;99.90;;;11.88;74.43;100668.56;4907944;28;98072;-51
2022/12/21 01:30:43;;;;;;;2.33;1.43;;;11.90;99.90;;;11.95;73.91;100666.53;4911478;28;96619;-49
2022/12/21 01:33:15;;;;;;;4.43;1.50;;;12.00;99.90;;;12.01;76.07;100673.38;4906442;28;97527;-49
2022/12/21 01:35:42;;;;;;;3.87;1.80;;;12.00;99.90;;;12.06;73.97;100676.66;4908488;28;97405;-48
2022/12/21 01:38:10;;;;;;;2.27;1.67;;;12.00;99.90;;;12.13;75.19;100684.28;4911738;28;96959;-51
2022/12/21 01:40:36;;;;;;;1.93;1.40;;;12.10;99.90;;;12.28;65.15;100690.69;4914428;28;97120;-51
2022/12/21 01:43:43;;;;;;;2.20;1.57;;;12.30;99.90;;;12.43;69.28;100686.53;4909305;28;97297;-47
2022/12/21 01:46:42;;;;;;;2.67;1.70;;;12.50;99.90;;;12.59;63.91;100684.13;4904654;28;99510;-51
2022/12/21 01:49:24;;;;;;;3.73;1.73;;;12.70;99.90;;;12.65;72.35;100690.00;4880181;28;97747;-46
2022/12/21 01:52:01;;;;;;;2.47;1.67;;;12.80;99.90;;;12.68;72.49;100692.50;4908786;28;97312;-46
2022/12/21 01:54:32;;;;;;;2.93;1.77;;;12.80;99.90;;;12.76;67.31;100694.84;4916362;28;97305;-49
2022/12/21 01:57:02;;;;;;;3.47;2.00;;;12.80;99.90;;;12.86;68.20;100695.25;4888982;28;96967;-50
2022/12/21 01:59:37;;;;;;;2.23;1.50;;;12.90;99.90;;;12.85;67.02;100694.41;4912139;28;97337;-51
2022/12/21 02:02:09;;;;;;;3.50;1.93;;;12.90;99.90;;;12.88;71.87;100699.59;4889676;28;99134;-50
2022/12/21 02:04:35;;;;;;;2.67;1.57;;;12.90;99.90;;;12.83;72.58;100696.25;4908610;28;98224;-47
2022/12/21 02:07:01;;;;;;;3.33;1.57;;;12.90;99.90;;;12.80;72.80;100693.75;4909980;28;103625;-50
2022/12/21 02:09:33;;;;;;;2.90;1.77;;;12.90;99.90;;;12.80;72.60;100691.97;4909903;28;99525;-48
2022/12/21 02:12:04;;;;;;;2.70;1.33;;;12.80;99.90;;;12.82;71.92;100689.25;4910445;28;97252;-48
2022/12/21 02:14:39;;;;;;;2.00;1.20;;;12.80;99.90;;;12.84;72.45;100686.53;4887533;28;97384;-51
2022/12/21 02:17:25;;;;;;;2.37;1.63;;;12.80;99.90;;;12.85;72.34;100696.19;4898963;28;97467;-50
2022/12/21 02:20:20;;;;;;;2.03;1.13;;;12.80;99.90;;;12.79;71.62;100684.09;4905788;28;97220;-48
2022/12/21 02:23:17;;;;;;;2.07;1.10;;;12.80;99.90;;;12.70;71.18;100692.44;4899120;28;103800;-48
2022/12/21 02:26:13;;;;;;;1.23;1.13;;;12.70;99.90;;;12.61;71.44;100696.34;4908282;28;99235;-46
2022/12/21 02:28:54;;;;;;;2.70;1.13;;;12.60;99.90;;;12.55;71.81;100695.75;4896280;28;97054;-46
2022/12/21 02:31:32;;;;;;;2.93;1.37;;;12.50;99.90;;;12.59;67.18;100692.94;4905592;28;102419;-46
2022/12/21 02:34:23;;;;;;;2.33;1.40;;;12.50;99.90;;;12.63;72.32;100699.78;4892449;28;99544;-49
2022/12/21 02:37:06;;;;;;;2.30;1.53;;;12.60;99.90;;;12.72;67.05;100693.22;4913499;28;97098;-50
2022/12/21 02:40:12;;;;;;;2.37;1.50;;;12.70;99.90;;;12.79;67.45;100690.25;4910533;28;97229;-47
2022/12/21 02:46:06;;;;;;;4.23;1.80;;;13.00;99.90;;;12.90;71.01;100686.28;4892629;28;101020;-50
2022/12/21 02:48:43;;;;;;;4.33;1.60;;;13.00;99.90;;;12.91;70.48;100688.00;4891552;28;100574;-46
2022/12/21 02:51:18;;;;;;;4.60;1.37;;;12.90;99.90;;;12.89;71.41;100700.44;4910593;28;97220;-49
2022/12/21 02:53:45;;;;;;;2.17;1.23;;;12.90;99.90;;;12.86;72.12;100700.56;4910021;28;97276;-45
2022/12/21 02:56:17;;;;;;;2.17;1.10;;;12.80;99.90;;;12.80;72.65;100702.56;4910852;28;114513;-48
2022/12/21 02:58:43;;;;;;;2.60;1.60;;;12.80;99.90;;;12.82;72.06;100695.41;4903664;28;96859;-48
2022/12/21 03:01:43;;;;;;;2.60;1.67;;;12.80;99.90;;;12.88;68.09;100696.09;4915131;28;97291;-51
2022/12/21 03:04:56;;;;;;;2.50;1.97;;;12.90;99.90;;;12.84;72.29;100691.81;4908409;28;97266;-51
2022/12/21 03:07:58;;;;;;;3.10;1.63;;;12.90;99.90;;;12.80;72.26;100681.38;4870144;28;102738;-51
2022/12/21 03:10:58;;;;;;;3.43;2.03;;;12.80;99.90;;;12.74;71.65;100680.81;4905878;28;97445;-50
2022/12/21 03:14:07;;;;;;;3.00;1.27;;;12.70;99.90;;;12.64;71.94;100690.94;4907663;28;96990;-51
2022/12/21 03:16:50;;;;;;;2.10;1.57;;;12.60;99.90;;;12.57;71.84;100672.72;4908456;28;103181;-50
2022/12/21 03:19:33;;;;;;;1.87;1.50;;;12.50;99.90;;;12.50;71.42;100673.00;4892690;28;99153;-49
2022/12/21 03:22:06;;;;;;;1.97;1.10;;;12.50;99.90;;;12.45;71.66;100664.41;4911898;28;97328;-48
2022/12/21 03:24:38;;;;;;;1.80;1.20;;;12.40;99.90;;;12.39;71.99;100669.09;4913795;28;96925;-47
2022/12/21 03:27:14;;;;;;;3.80;2.00;;;12.30;99.90;;;12.35;72.31;100664.88;4900889;28;97159;-47
2022/12/21 03:29:50;;;;;;;2.67;1.23;;;12.30;99.90;;;12.28;71.99;100656.31;4894140;28;97355;-49
2022/12/21 03:32:28;;;;;;;3.00;1.40;;;12.20;99.90;;;12.25;72.48;100656.47;4903958;28;97224;-47
2022/12/21 03:34:55;;;;;;;3.30;1.57;;;12.20;99.90;;;12.21;72.43;100650.44;4893206;28;97893;-49
2022/12/21 03:37:26;;;;;;;1.30;1.10;;;12.20;99.90;;;12.20;72.02;100642.59;4899514;28;112370;-46
2022/12/21 03:40:18;;;;;;;2.20;1.10;;;12.20;99.90;;;12.20;72.43;100646.09;4897029;28;97545;-49
2022/12/21 03:43:21;;;;;;;1.87;1.23;;;12.20;99.90;;;12.16;72.48;100639.22;4912517;28;97317;-49
2022/12/21 03:46:12;;;;;;;1.77;1.13;;;12.10;99.90;;;12.10;72.37;100650.03;4871124;28;97897;-48
2022/12/21 03:48:53;;;;;;;1.27;0.80;;;12.10;99.90;;;12.06;72.23;100644.94;4902505;28;104041;-48
2022/12/21 03:51:57;;;;;;;0.57;0.57;;;12.00;99.90;;;12.02;72.63;100644.22;4897311;28;100005;-52
2022/12/21 03:54:50;;;;;;;1.77;1.30;;;12.00;99.90;;;11.99;72.84;100644.31;4903118;28;96879;-51
2022/12/21 03:57:18;;;;;;;1.87;0.97;;;12.00;99.90;;;11.95;73.01;100637.44;4922664;28;96937;-51
2022/12/21 03:59:49;;;;;;;2.50;1.37;;;11.90;99.90;;;11.95;72.65;100633.94;4930299;28;96846;-53
2022/12/21 04:02:50;;;;;;;1.33;0.80;;;11.90;99.90;;;11.93;72.79;100634.03;4924765;28;97180;-52
2022/12/21 04:05:26;;;;;;;2.63;1.50;;;11.90;99.90;;;11.91;72.90;100630.59;4918365;28;97419;-48
2022/12/21 04:07:53;;;;;;;2.63;1.47;;;11.90;99.90;;;11.90;72.97;100628.88;4925341;28;97238;-53
2022/12/21 04:10:21;;;;;;;2.53;1.37;;;11.90;99.90;;;11.89;73.15;100622.72;4903968;28;102406;-52
2022/12/21 04:12:47;;;;;;;2.53;1.07;;;11.90;99.90;;;11.89;73.12;100621.88;4903441;28;97328;-52
2022/12/21 04:15:18;;;;;;;1.40;1.30;;;11.90;99.90;;;11.86;73.35;100616.69;4924328;28;97130;-53
2022/12/21 04:17:47;;;;;;;2.53;1.20;;;11.90;99.90;;;11.86;73.24;100616.69;4910218;28;96827;-52
2022/12/21 04:20:23;;;;;;;2.47;1.50;;;11.80;99.90;;;11.84;73.46;100607.97;4905638;28;96821;-52
2022/12/21 04:28:24;;;;;;;1.83;1.10;;;11.80;99.90;;;11.79;73.38;100604.66;4916501;28;97048;-54
2022/12/21 04:30:50;;;;;;;2.37;1.53;;;11.80;99.90;;;11.78;73.38;100598.47;4917091;28;97467;-51
2022/12/21 04:33:19;;;;;;;2.17;1.23;;;11.80;99.90;;;11.79;73.38;100599.38;4930843;28;97442;-53
2022/12/21 04:38:33;;;;;;;1.43;1.23;;;11.70;99.90;;;11.75;73.19;100603.03;4917369;28;97168;-50
2022/12/21 04:40:59;;;;;;;1.53;1.03;;;11.70;99.90;;;11.75;73.91;100609.19;4923481;28;97358;-52
2022/12/21 04:43:26;;;;;;;2.40;1.67;;;11.70;99.90;;;11.75;73.51;100608.31;4921220;28;97214;-55
2022/12/21 04:46:07;;;;;;;1.10;0.60;;;11.70;99.90;;;11.75;73.64;100608.31;4921820;28;97457;-53
2022/12/21 04:48:34;;;;;;;3.47;1.67;;;11.70;99.90;;;11.75;73.68;100603.03;4922872;28;98079;-52
2022/12/21 04:51:06;;;;;;;1.80;1.30;;;11.70;99.90;;;11.77;73.88;100606.47;4913684;28;97652;-53
2022/12/21 04:53:33;;;;;;;2.57;1.50;;;11.70;99.90;;;11.75;73.92;100608.31;4922284;28;98054;-51
2022/12/21 04:55:59;;;;;;;2.67;1.83;;;11.70;99.90;;;11.76;74.06;100608.25;4920531;28;97261;-52
2022/12/21 04:58:25;;;;;;;1.77;1.00;;;11.80;99.90;;;11.76;73.96;100600.34;4898373;28;97690;-50
2022/12/21 05:00:51;;;;;;;1.63;1.17;;;11.80;99.90;;;11.77;73.74;100601.19;4918509;28;97044;-53
2022/12/21 05:03:17;;;;;;;2.53;1.50;;;11.80;99.90;;;11.79;74.05;100599.38;4915085;28;97065;-53
2022/12/21 05:05:42;;;;;;;2.40;1.60;;;11.80;99.90;;;11.80;73.85;100607.22;4895384;28;97603;-53
2022/12/21 05:08:08;;;;;;;2.40;1.40;;;11.80;99.90;;;11.80;74.12;100607.22;4905799;28;108479;-50
2022/12/21 05:10:34;;;;;;;3.33;2.00;;;11.80;99.90;;;11.80;73.98;100609.00;4914341;28;98523;-53
2022/12/21 05:12:59;;;;;;;2.23;1.33;;;11.80;99.90;;;11.82;74.13;100607.16;4907473;28;119174;-49
2022/12/21 05:15:25;;;;;;;2.07;1.63;;;11.80;99.90;;;11.84;74.22;100606.16;4898106;28;105895;-53
2022/12/21 05:17:51;;;;;;;4.73;2.17;;;11.80;99.90;;;11.86;74.46;100606.09;4919521;28;97450;-52
2022/12/21 05:20:17;;;;;;;2.33;1.80;;;11.80;99.90;;;11.88;73.53;100597.22;4909157;28;102690;-48
2022/12/21 05:22:48;;;;;;;3.97;1.93;;;11.90;99.90;;;11.91;74.57;100606.78;4909700;28;102711;-55
2022/12/21 05:25:14;;;;;;;8.57;2.27;;;11.90;99.90;;;11.93;74.76;100612.88;4915137;28;97329;-51
2022/12/21 05:27:40;;;;;;;3.20;1.80;;;11.90;99.90;;;11.94;74.82;100598.72;4921673;28;97268;-51
2022/12/21 05:30:07;;;;;;;2.57;1.97;;;11.90;99.90;;;11.96;74.69;100610.09;4919281;28;98123;-50
2022/12/21 05:32:32;;;;;;;3.27;1.67;;;12.00;99.90;;;11.99;74.11;100607.31;4920814;28;97306;-53
2022/12/21 05:34:58;;;;;;;2.60;2.10;;;12.00;99.90;;;12.00;74.30;100609.03;4920215;28;97724;-53
2022/12/21 05:37:24;;;;;;;4.67;1.97;;;12.00;99.90;;;12.02;74.02;100612.50;4922678;28;97313;-52
2022/12/21 05:39:49;;;;;;;5.60;2.00;;;12.00;99.90;;;12.02;74.45;100612.50;4900516;28;103887;-54
2022/12/21 05:42:15;;;;;;;3.20;1.90;;;12.00;99.90;;;12.04;74.06;100613.28;4913484;28;97272;-54
2022/12/21 05:44:41;;;;;;;4.77;2.27;;;12.00;99.90;;;12.04;74.21;100610.66;4918250;28;96727;-52
2022/12/21 05:47:07;;;;;;;7.03;2.37;;;12.00;99.90;;;12.05;74.41;100606.22;4920566;28;97497;-50
2022/12/21 05:49:32;;;;;;;2.93;1.63;;;12.00;99.90;;;12.06;74.63;100608.78;4913252;28;98961;-53
2022/12/21 05:51:58;;;;;;;3.10;1.93;;;12.00;99.90;;;12.06;74.49;100611.44;4894588;28;98603;-54
2022/12/21 05:54:24;;;;;;;5.30;1.97;;;12.10;99.90;;;12.10;71.08;100605.09;4912305;28;97094;-53
2022/12/21 05:56:50;;;;;;;4.67;1.87;;;12.10;99.90;;;12.15;71.91;100595.19;4913668;28;117747;-54
2022/12/21 05:59:15;;;;;;;3.30;1.90;;;12.10;99.90;;;12.17;73.29;100595.97;4909107;28;99794;-49
2022/12/21 06:01:41;;;;;;;4.20;2.03;;;12.10;99.90;;;12.17;73.83;100595.13;4911878;28;97081;-53
2022/12/21 06:04:07;;;;;;;2.23;1.27;;;12.20;99.90;;;12.17;73.74;100588.03;4914223;28;97146;-53
2022/12/21 06:06:33;;;;;;;4.00;1.97;;;12.10;99.90;;;12.18;73.12;100591.53;4911995;28;97074;-53
2022/12/21 06:08:59;;;;;;;5.03;2.37;;;12.20;99.90;;;12.18;73.63;100579.19;4909633;28;98693;-49
2022/12/21 06:11:25;;;;;;;3.83;2.20;;;12.20;99.90;;;12.17;73.87;100585.41;4913189;28;113065;-55
2022/12/21 06:13:51;;;;;;;2.00;1.33;;;12.20;99.90;;;12.13;73.38;100581.16;4912732;28;97162;-52
2022/12/21 06:16:23;;;;;;;1.53;1.00;;;12.10;99.90;;;12.14;73.99;100580.22;4913216;28;113549;-51
2022/12/21 06:18:51;;;;;;;3.60;1.43;;;12.10;99.90;;;12.11;74.02;100580.34;4918700;28;97346;-51
2022/12/21 06:21:18;;;;;;;2.97;1.90;;;12.10;99.90;;;12.09;74.04;100582.22;4918007;28;96600;-48
2022/12/21 06:23:46;;;;;;;4.33;2.07;;;12.10;99.90;;;12.08;74.05;100587.56;4895025;28;97117;-52
2022/12/21 06:26:18;;;;;;;2.13;1.30;;;12.10;99.90;;;12.07;73.93;100589.34;4916634;28;99708;-50
2022/12/21 06:28:50;;;;;;;2.90;1.87;;;12.10;99.90;;;12.07;74.63;100592.00;4919724;28;97639;-53
2022/12/21 06:31:18;;;;;;;2.33;1.27;;;12.00;99.90;;;12.07;73.78;100583.22;4917508;28;97060;-51
2022/12/21 06:33:44;;;;;;;3.00;2.00;;;12.00;99.90;;;12.10;74.19;100583.94;4924887;28;97335;-52
2022/12/21 06:36:11;;;;;;;6.70;1.70;;;12.10;99.90;;;12.10;74.34;100580.44;4911184;28;97252;-53
2022/12/21 06:38:38;;;;;;;4.80;1.47;;;12.10;99.90;;;12.11;74.47;100587.44;4912288;28;102763;-53
2022/12/21 06:41:10;;;;;;;4.77;2.17;;;12.10;99.90;;;12.13;74.07;100589.06;4884495;28;97086;-51
2022/12/21 06:43:38;;;;;;;2.97;1.97;;;12.10;99.90;;;12.13;74.06;100583.78;4900725;28;97633;-52
2022/12/21 06:46:11;;;;;;;2.27;1.70;;;12.10;99.90;;;12.19;72.99;100583.53;4908057;28;97548;-51
2022/12/21 06:48:38;;;;;;;2.63;1.47;;;12.20;99.90;;;12.19;74.06;100588.84;4923154;28;97934;-48
2022/12/21 06:51:11;;;;;;;2.00;1.67;;;12.20;99.90;;;12.20;73.92;100587.03;4894961;28;98237;-48
2022/12/21 06:53:41;;;;;;;4.13;1.43;;;12.20;99.90;;;12.22;73.23;100593.13;4918798;28;99141;-55
2022/12/21 06:56:12;;;;;;;4.07;1.97;;;12.20;99.90;;;12.23;73.88;100584.25;4891045;28;97880;-52
2022/12/21 06:58:38;;;;;;;2.80;1.70;;;12.20;99.90;;;12.25;72.00;100582.41;4916724;28;97379;-52
2022/12/21 07:01:10;;;;;;;3.90;1.60;;;12.20;99.90;;;12.24;73.48;100585.13;4908959;28;96973;-51
2022/12/21 07:03:38;;;;;;;5.70;2.00;;;12.20;99.90;;;12.19;73.40;100580.91;4905322;28;97352;-51
2022/12/21 07:06:05;;;;;;;3.23;1.97;;;12.10;99.90;;;12.21;74.40;100596.69;4914775;28;97512;-53
2022/12/21 07:08:31;;;;;;;2.10;1.47;;;12.20;99.90;;;12.20;73.97;100582.63;4920596;28;97335;-50
2022/12/21 07:10:58;;;;;;;2.63;1.67;;;12.10;99.90;;;12.18;73.99;100597.69;4909567;28;114964;-52
2022/12/21 07:13:25;;;;;;;3.73;1.77;;;12.20;99.90;;;12.21;75.60;100607.28;4894092;28;97442;-50
2022/12/21 07:15:52;;;;;;;3.73;1.90;;;12.20;99.90;;;12.21;74.56;100604.63;4898206;28;97008;-50
2022/12/21 07:18:18;;;;;;;3.97;1.97;;;12.20;99.90;;;12.24;67.00;100595.69;4913097;28;97401;-51
2022/12/21 07:20:44;;;;;;;3.40;1.93;;;12.20;99.90;;;12.30;73.54;100606.03;4920924;28;97625;-53
2022/12/21 07:23:10;;;;;;;4.93;2.17;;;12.30;99.90;;;12.31;68.10;100605.09;4896071;28;97214;-50
2022/12/21 07:25:35;;;;;;;2.90;1.13;;;12.30;99.90;;;12.41;71.01;100603.75;4924526;28;97253;-51
2022/12/21 07:28:01;;;;;;;4.57;0.97;;;12.40;99.90;;;12.46;71.03;100607.06;4914314;28;99236;-51
2022/12/21 07:30:27;;;;;;;2.60;1.30;;;12.40;99.90;;;12.55;65.79;100606.66;4914594;28;102548;-50
2022/12/21 07:32:54;;;;;;;1.63;0.87;;;12.50;99.90;;;12.63;70.40;100616.91;4914898;28;97529;-48
2022/12/21 07:35:24;;;;;;;2.23;1.50;;;12.60;99.90;;;12.68;70.22;100618.41;4919488;28;97668;-51
2022/12/21 07:37:51;;;;;;;6.07;1.17;;;12.60;99.90;;;12.64;71.77;100616.84;4910283;28;111801;-52
2022/12/21 07:40:17;;;;;;;2.13;1.47;;;12.60;99.90;;;12.66;68.27;100614.97;4915986;28;96988;-49
2022/12/21 07:42:45;;;;;;;1.97;1.23;;;12.60;99.90;;;12.66;69.95;100620.25;4916324;28;97314;-52
2022/12/21 07:45:11;;;;;;;1.57;1.13;;;12.60;99.90;;;12.64;72.13;100622.13;4911764;28;96935;-51
2022/12/21 07:47:37;;;;;;;1.50;1.10;;;12.60;99.90;;;12.66;66.43;100617.63;4913518;28;103170;-49
2022/12/21 07:50:05;;;;;;;3.63;0.90;;;12.60;99.90;;;12.71;69.35;100607.66;4911186;28;97123;-52
2022/12/21 07:52:31;;;;;;;2.70;1.13;;;12.60;99.90;;;12.72;70.06;100614.69;4895877;28;97311;-52
2022/12/21 07:54:57;;;;;;;0.80;0.60;;;12.70;99.90;;;12.67;71.83;100616.69;4914571;28;105266;-56
2022/12/21 07:57:23;;;;;;;2.63;1.10;;;12.60;99.90;;;12.68;72.26;100622.84;4911883;28;102988;-54
2022/12/21 07:59:49;;;;;;;1.17;0.80;;;12.60;99.90;;;12.67;72.37;100626.41;4913177;28;97464;-54
2022/12/21 08:02:15;;;;;;;2.60;0.90;;;12.60;99.90;;;12.61;73.37;100638.16;4910378;28;98470;-50
2022/12/21 08:04:41;;;;;;;1.50;0.70;;;12.50;99.90;;;12.62;73.62;100639.84;4907991;28;97768;-51
2022/12/21 08:07:07;;;;;;;1.90;0.90;;;12.50;99.90;;;12.58;72.81;100643.53;4904894;28;98016;-52
2022/12/21 08:09:45;;;;;;;2.83;1.20;;;12.50;99.90;;;12.60;72.96;100647.00;4909080;28;97163;-53
2022/12/21 08:12:11;;;;;;;1.23;0.80;;;12.50;99.90;;;12.56;73.34;100650.69;4909987;28;97089;-51
2022/12/21 08:14:37;;;;;;;1.13;0.80;;;12.50;99.90;;;12.54;73.58;100647.25;4910151;28;98457;-49
2022/12/21 08:17:03;;;;;;;2.30;0.90;;;12.50;99.90;;;12.53;72.51;100650.84;4911636;28;98849;-50
2022/12/21 08:19:28;;;;;;;1.40;1.00;;;12.50;99.90;;;12.50;73.27;100656.28;4916904;28;125976;-49
2022/12/21 08:21:54;;;;;;;3.57;1.10;;;12.50;99.90;;;12.49;73.17;100657.19;4913735;28;97477;-52
2022/12/21 08:24:20;;;;;;;1.17;0.70;;;12.50;99.90;;;12.48;73.54;100647.53;4912028;28;97112;-52
2022/12/21 08:26:46;;;;;;;1.13;0.87;;;12.50;99.90;;;12.46;73.20;100659.97;4895725;28;98015;-51
2022/12/21 08:29:13;;;;;;;2.60;1.17;;;12.40;99.90;;;12.42;72.80;100658.38;4908826;28;98256;-52
2022/12/21 08:31:39;;;;;;;2.50;1.23;;;12.40;99.90;;;12.39;73.70;100663.81;4914604;28;97406;-53
2022/12/21 08:34:05;;;;;;;0.83;0.77;;;12.40;99.90;;;12.40;73.80;100654.94;4912195;28;97457;-54
2022/12/21 08:36:32;;;;;;;1.77;0.87;;;12.40;99.90;;;12.39;73.98;100658.50;4921188;28;97487;-50
2022/12/21 08:38:58;;;;;;;1.97;1.37;;;12.40;99.90;;;12.40;74.39;100660.22;4907384;28;99073;-58
2022/12/21 08:41:24;;;;;;;14.20;3.13;;;12.40;99.90;;;12.39;73.97;100658.50;4912735;28;97327;-50
2022/12/21 08:43:50;;;;;;;6.40;2.23;;;12.40;99.90;;;12.41;74.87;100656.66;4913073;28;97364;-54
2022/12/21 08:46:16;;;;;;;3.83;1.80;;;12.40;99.90;;;12.41;74.58;100667.25;4911204;28;97908;-51
2022/12/21 08:48:42;;;;;;;1.80;1.27;;;12.40;99.90;;;12.42;74.63;100663.66;4894298;28;108124;-49
2022/12/21 08:51:08;;;;;;;1.63;1.07;;;12.40;99.90;;;12.44;74.64;100664.44;4917488;28;97249;-51
2022/12/21 08:53:35;;;;;;;1.83;0.60;;;12.40;99.90;;;12.43;75.63;100671.53;4916562;28;97356;-51
2022/12/21 08:56:02;;;;;;;2.00;1.10;;;12.40;99.90;;;12.44;75.61;100664.44;4910393;28;97587;-52
2022/12/21 08:58:28;;;;;;;4.93;1.47;;;12.50;99.90;;;12.46;76.49;100678.50;4894978;28;97644;-52
2022/12/21 09:00:55;;;;;;;1.10;1.00;;;12.50;99.90;;;12.49;76.18;100670.44;4908206;28;97455;-46
2022/12/21 09:03:22;;;;;;;2.40;0.97;;;12.50;99.90;;;12.52;75.83;100670.28;4908990;28;97323;-55
2022/12/21 09:05:58;;;;;;;2.10;1.10;;;12.50;99.90;;;12.52;76.57;100680.88;4911131;28;98829;-51
2022/12/21 09:08:24;;;;;;;1.80;0.80;;;12.60;99.90;;;12.55;76.84;100679.88;4872610;28;100048;-54
2022/12/21 09:11:06;;;;;;;2.50;1.30;;;12.60;99.90;;;12.58;76.49;100677.94;4903146;28;97221;-53
2022/12/21 09:13:32;;;;;;;0.87;0.50;;;12.60;99.90;;;12.58;75.70;100680.59;4910518;28;97654;-50
2022/12/21 09:15:58;;;;;;;1.77;1.17;;;12.60;99.90;;;12.61;75.47;100679.63;4886869;28;99813;-53
2022/12/21 09:18:24;;;;;;;1.80;0.87;;;12.60;99.90;;;12.63;76.49;100683.91;4910854;28;97383;-49
2022/12/21 09:20:50;;;;;;;1.53;0.83;;;12.70;99.90;;;12.69;74.43;100699.50;4911241;28;96882;-51
2022/12/21 09:23:16;;;;;;;2.23;0.93;;;12.70;99.90;;;12.79;65.16;100690.25;4910532;28;97273;-51
2022/12/21 09:25:41;;;;;;;1.60;1.00;;;12.90;99.90;;;12.89;66.86;100689.84;4913717;28;97317;-52
2022/12/21 09:28:07;;;;;;;2.07;1.10;;;13.00;99.90;;;12.90;74.18;100687.13;4903274;28;97273;-53
2022/12/21 09:30:33;;;;;;;1.77;0.70;;;13.00;99.90;;;12.89;74.09;100689.84;4909202;28;97176;-54
2022/12/21 09:32:59;;;;;;;3.00;1.03;;;13.00;99.90;;;12.89;74.18;100700.44;4910437;28;97362;-46
2022/12/21 09:35:25;;;;;;;1.27;0.93;;;12.90;99.90;;;12.89;74.16;100700.44;4912866;28;98122;-56
2022/12/21 09:37:51;;;;;;;4.30;0.90;;;12.90;99.90;;;12.86;74.53;100700.56;4915491;28;100228;-53
2022/12/21 09:40:20;;;;;;;1.67;0.90;;;12.90;99.90;;;12.84;74.81;100703.28;4914023;28;96865;-49
2022/12/21 09:43:19;;;;;;;0.93;0.77;;;12.90;99.90;;;12.86;74.49;100711.16;4895406;28;97653;-46
2022/12/21 09:46:04;;;;;;;1.53;0.80;;;12.90;99.90;;;12.92;66.95;100705.59;4913820;28;96882;-47
2022/12/21 09:48:53;;;;;;;2.03;1.53;;;12.90;99.90;;;12.99;70.99;100702.59;4897018;28;102115;-47
2022/12/21 09:51:23;;;;;;;1.77;1.13;;;13.10;99.90;;;13.02;69.96;100712.22;4916291;28;99452;-52
2022/12/21 09:54:06;;;;;;;2.13;1.23;;;13.20;99.90;;;13.10;70.02;100725.94;4902344;28;97509;-47
2022/12/21 09:56:39;;;;;;;1.77;1.10;;;13.20;99.90;;;13.09;71.15;100718.94;4896059;28;97549;-47
2022/12/21 09:59:13;;;;;;;1.57;0.93;;;13.30;99.90;;;13.14;62.51;100727.53;4920051;28;97152;-49
2022/12/21 10:02:16;;;;;;;1.50;0.77;;;13.30;99.90;;;13.25;63.04;100735.03;4913895;28;96819;-48
2022/12/21 10:05:38;;;;;;;3.17;1.03;;;13.40;99.90;;;13.18;63.29;100723.88;4910342;28;96912;-51
2022/12/21 10:09:00;;;;;;;3.43;1.57;;;13.40;99.90;;;13.17;65.39;100722.13;4841960;28;100538;-52
2022/12/21 10:12:03;;;;;;;1.73;1.20;;;13.40;99.90;;;13.10;64.76;100737.41;4829708;28;99842;-52
2022/12/21 10:15:12;;;;;;;4.07;1.97;;;13.30;99.90;;;13.03;68.25;100735.13;4896507;28;97147;-46
2022/12/21 10:17:56;;;;;;;3.47;2.00;;;13.20;99.90;;;13.03;68.44;100741.28;4911396;28;97463;-46
2022/12/21 10:20:44;;;;;;;4.10;1.90;;;13.10;99.90;;;13.05;67.19;100743.84;4916935;28;97540;-54
2022/12/21 10:23:33;;;;;;;4.37;2.00;;;13.10;99.90;;;12.98;67.48;100745.88;4895370;28;101094;-52
2022/12/21 10:26:03;;;;;;;4.07;1.63;;;13.10;99.90;;;12.89;69.63;100745.44;4912828;28;97042;-47
2022/12/21 10:28:38;;;;;;;2.73;1.83;;;12.90;99.90;;;12.89;69.46;100742.81;4914167;28;97095;-47
2022/12/21 10:31:10;;;;;;;5.10;2.43;;;13.00;99.90;;;12.85;69.86;100744.69;4915828;28;97510;-49
2022/12/21 10:33:42;;;;;;;4.73;2.57;;;12.90;99.90;;;12.81;70.55;100746.63;4913611;28;97017;-49
2022/12/21 10:36:17;;;;;;;4.00;2.13;;;12.80;99.90;;;12.75;70.75;100746.91;4917712;28;97019;-53
2022/12/21 10:38:44;;;;;;;4.67;2.53;;;12.80;99.90;;;12.73;69.74;100755.81;4914605;28;97214;-50
2022/12/21 10:41:20;;;;;;;4.83;2.00;;;12.80;99.90;;;12.66;68.55;100757.88;4918867;28;98765;-55
2022/12/21 10:43:48;;;;;;;3.07;1.33;;;12.70;99.90;;;12.71;68.21;100755.88;4906735;28;97172;-47
2022/12/21 10:46:19;;;;;;;4.60;2.07;;;12.80;99.90;;;12.64;69.32;100754.44;4894693;28;97372;-51